createdAt,value
2023-04-16T00:01:06.881Z,8.70
2023-04-16T00:03:34.158Z,8.70
2023-04-16T00:06:01.356Z,8.70
2023-04-16T00:08:28.342Z,8.70
2023-04-16T00:10:55.283Z,8.70
2023-04-16T00:13:22.773Z,8.70
2023-04-16T00:15:49.744Z,8.70
2023-04-16T00:18:16.697Z,8.60
2023-04-16T00:20:43.522Z,8.60
2023-04-16T00:23:10.584Z,8.60
2023-04-16T00:25:37.585Z,8.70
2023-04-16T00:28:05.277Z,8.70
2023-04-16T00:30:32.224Z,8.60
2023-04-16T00:32:59.221Z,8.60
2023-04-16T00:35:26.126Z,8.60
2023-04-16T00:37:53.284Z,8.60
2023-04-16T00:40:20.260Z,8.60
2023-04-16T00:42:47.205Z,8.60
2023-04-16T00:45:14.318Z,8.50
2023-04-16T00:47:41.219Z,8.50
2023-04-16T00:50:08.673Z,8.50
2023-04-16T00:52:35.662Z,8.50
2023-04-16T00:55:02.785Z,8.50
2023-04-16T00:57:29.763Z,8.60
2023-04-16T00:59:56.727Z,8.60
2023-04-16T01:02:24.164Z,8.60
2023-04-16T01:04:51.885Z,8.60
2023-04-16T01:07:18.889Z,8.60
2023-04-16T01:09:46.085Z,8.60
2023-04-16T01:12:13.876Z,8.50
2023-04-16T01:14:40.821Z,8.50
2023-04-16T01:17:07.910Z,8.50
2023-04-16T01:19:38.787Z,8.50
2023-04-16T01:22:06.019Z,8.50
2023-04-16T01:24:34.814Z,8.50
2023-04-16T01:27:01.771Z,8.50
2023-04-16T01:29:28.715Z,8.50
2023-04-16T01:31:56.093Z,8.50
2023-04-16T01:34:23.507Z,8.50
2023-04-16T01:36:51.295Z,8.50
2023-04-16T01:39:19.882Z,8.50
2023-04-16T01:41:47.117Z,8.50
2023-04-16T01:44:14.030Z,8.50
2023-04-16T01:46:41.196Z,8.50
2023-04-16T01:49:08.517Z,8.50
2023-04-16T01:51:35.871Z,8.50
2023-04-16T01:54:02.926Z,8.50
2023-04-16T01:56:29.866Z,8.60
2023-04-16T01:58:56.910Z,8.60
2023-04-16T02:01:24.449Z,8.60
2023-04-16T02:03:51.790Z,8.60
2023-04-16T02:06:18.979Z,8.60
2023-04-16T02:08:45.932Z,8.60
2023-04-16T02:11:12.899Z,8.70
2023-04-16T02:13:39.748Z,8.60
2023-04-16T02:16:06.856Z,8.60
2023-04-16T02:18:33.815Z,8.60
2023-04-16T02:21:00.791Z,8.60
2023-04-16T02:23:27.858Z,8.60
2023-04-16T02:25:54.823Z,8.60
2023-04-16T02:28:21.684Z,8.60
2023-04-16T02:30:48.637Z,8.60
2023-04-16T02:33:15.657Z,8.60
2023-04-16T02:35:42.570Z,8.60
2023-04-16T02:38:09.670Z,8.60
2023-04-16T02:40:36.621Z,8.60
2023-04-16T02:43:03.535Z,8.60
2023-04-16T02:45:31.833Z,8.60
2023-04-16T02:47:59.311Z,8.60
2023-04-16T02:50:26.241Z,8.60
2023-04-16T02:52:53.197Z,8.60
2023-04-16T02:55:20.209Z,8.60
2023-04-16T02:57:47.159Z,8.70
2023-04-16T03:00:14.212Z,8.70
2023-04-16T03:02:41.651Z,8.70
2023-04-16T03:05:09.202Z,8.70
2023-04-16T03:07:36.186Z,8.70
2023-04-16T03:10:03.110Z,8.70
2023-04-16T03:12:29.938Z,8.70
2023-04-16T03:14:57.155Z,8.70
2023-04-16T03:17:24.299Z,8.70
2023-04-16T03:19:51.280Z,8.70
2023-04-16T03:22:18.216Z,8.70
2023-04-16T03:24:45.215Z,8.70
2023-04-16T03:27:12.605Z,8.70
2023-04-16T03:29:39.587Z,8.70
2023-04-16T03:32:06.524Z,8.70
2023-04-16T03:34:33.470Z,8.70
2023-04-16T03:37:01.039Z,8.70
2023-04-16T03:39:27.955Z,8.70
2023-04-16T03:41:54.950Z,8.70
2023-04-16T03:44:22.070Z,8.70
2023-04-16T03:46:49.199Z,8.70
2023-04-16T03:49:16.172Z,8.70
2023-04-16T03:51:43.131Z,8.70
2023-04-16T03:54:10.127Z,8.70
2023-04-16T03:56:37.114Z,8.70
2023-04-16T03:59:06.913Z,8.70
2023-04-16T04:01:33.983Z,8.70
2023-04-16T04:04:01.271Z,8.70
2023-04-16T04:06:28.749Z,8.70
2023-04-16T04:08:55.696Z,8.70
2023-04-16T04:11:22.595Z,8.70
2023-04-16T04:13:49.596Z,8.70
2023-04-16T04:16:16.567Z,8.80
2023-04-16T04:18:44.575Z,8.80
2023-04-16T04:21:11.694Z,8.80
2023-04-16T04:23:38.647Z,8.80
2023-04-16T04:26:07.769Z,8.80
2023-04-16T04:28:35.514Z,8.80
2023-04-16T04:31:02.748Z,8.80
2023-04-16T04:33:29.747Z,8.80
2023-04-16T04:35:57.457Z,8.80
2023-04-16T04:38:25.453Z,8.80
2023-04-16T04:40:53.031Z,8.80
2023-04-16T04:43:22.945Z,8.80
2023-04-16T04:45:50.066Z,8.80
2023-04-16T04:48:17.125Z,8.80
2023-04-16T04:50:44.987Z,8.80
2023-04-16T04:53:12.181Z,8.80
2023-04-16T04:55:39.412Z,8.80
2023-04-16T04:58:06.716Z,8.80
2023-04-16T05:00:34.246Z,8.80
2023-04-16T05:03:05.667Z,8.80
2023-04-16T05:05:32.808Z,8.80
2023-04-16T05:07:59.775Z,8.80
2023-04-16T05:10:27.255Z,8.80
2023-04-16T05:12:54.149Z,8.80
2023-04-16T05:15:21.204Z,8.80
2023-04-16T05:17:48.141Z,8.80
2023-04-16T05:20:15.089Z,8.80
2023-04-16T05:22:42.216Z,8.80
2023-04-16T05:25:09.327Z,8.80
2023-04-16T05:27:37.176Z,8.80
2023-04-16T05:30:04.508Z,8.80
2023-04-16T05:32:31.484Z,8.80
2023-04-16T05:34:58.357Z,8.90
2023-04-16T05:37:25.272Z,8.90
2023-04-16T05:39:52.201Z,8.90
2023-04-16T05:42:19.036Z,8.90
2023-04-16T05:44:46.141Z,8.90
2023-04-16T05:47:13.212Z,8.90
2023-04-16T05:49:40.199Z,8.90
2023-04-16T05:52:07.608Z,8.90
2023-04-16T05:54:35.140Z,8.90
2023-04-16T05:57:02.301Z,8.90
2023-04-16T05:59:30.770Z,8.80
2023-04-16T06:01:58.417Z,8.80
2023-04-16T06:04:25.509Z,8.80
2023-04-16T06:06:52.452Z,8.80
2023-04-16T06:09:19.425Z,8.80
2023-04-16T06:11:46.431Z,8.80
2023-04-16T06:14:13.354Z,8.80
2023-04-16T06:16:40.357Z,8.80
2023-04-16T06:19:07.353Z,8.80
2023-04-16T06:21:34.834Z,8.80
2023-04-16T06:24:01.837Z,8.80
2023-04-16T06:26:28.746Z,8.80
2023-04-16T06:28:55.797Z,8.80
2023-04-16T06:31:22.832Z,8.80
2023-04-16T06:33:49.890Z,8.80
2023-04-16T06:36:17.044Z,8.80
2023-04-16T06:38:43.967Z,8.80
2023-04-16T06:41:11.110Z,8.80
2023-04-16T06:43:38.059Z,8.80
2023-04-16T06:46:05.007Z,8.90
2023-04-16T06:48:32.018Z,8.90
2023-04-16T06:50:58.898Z,8.90
2023-04-16T06:53:25.969Z,8.90
2023-04-16T06:55:53.063Z,8.90
2023-04-16T06:58:19.938Z,8.90
2023-04-16T07:00:46.917Z,8.90
2023-04-16T07:03:14.417Z,8.90
2023-04-16T07:05:41.626Z,8.90
2023-04-16T07:08:08.512Z,8.90
2023-04-16T07:10:35.614Z,8.90
2023-04-16T07:13:02.510Z,9.00
2023-04-16T07:15:29.557Z,8.90
2023-04-16T07:17:56.492Z,9.00
2023-04-16T07:20:23.409Z,9.00
2023-04-16T07:22:50.535Z,9.00
2023-04-16T07:25:17.447Z,9.00
2023-04-16T07:27:44.403Z,9.00
2023-04-16T07:30:11.637Z,9.00
2023-04-16T07:32:38.626Z,9.00
2023-04-16T07:35:05.785Z,9.10
2023-04-16T07:37:32.677Z,9.10
2023-04-16T07:40:00.871Z,9.10
2023-04-16T07:42:28.600Z,9.10
2023-04-16T07:44:55.670Z,9.10
2023-04-16T07:47:23.640Z,9.10
2023-04-16T07:49:50.876Z,9.10
2023-04-16T07:52:17.730Z,9.10
2023-04-16T07:54:44.540Z,9.20
2023-04-16T07:57:12.347Z,9.20
2023-04-16T07:59:39.208Z,9.20
2023-04-16T08:02:06.553Z,9.20
2023-04-16T08:04:33.700Z,9.20
2023-04-16T08:07:00.728Z,9.30
2023-04-16T08:09:28.813Z,9.30
2023-04-16T08:11:55.778Z,9.40
2023-04-16T08:14:22.973Z,9.40
2023-04-16T08:16:50.098Z,9.50
2023-04-16T08:19:16.988Z,9.50
2023-04-16T08:21:44.070Z,9.50
2023-04-16T08:24:11.817Z,9.60
2023-04-16T08:26:38.680Z,9.60
2023-04-16T08:29:05.639Z,9.60
2023-04-16T08:31:32.962Z,9.60
2023-04-16T08:34:00.595Z,9.60
2023-04-16T08:36:27.865Z,9.60
2023-04-16T08:38:54.815Z,9.60
2023-04-16T08:41:22.131Z,9.60
2023-04-16T08:43:50.967Z,9.70
2023-04-16T08:46:18.292Z,9.70
2023-04-16T08:48:47.554Z,9.70
2023-04-16T08:51:14.887Z,9.70
2023-04-16T08:53:44.067Z,9.70
2023-04-16T08:56:11.970Z,9.70
2023-04-16T08:58:39.577Z,9.70
2023-04-16T09:01:09.436Z,9.60
2023-04-16T09:03:36.668Z,9.60
2023-04-16T09:06:04.656Z,9.60
2023-04-16T09:08:31.801Z,9.60
2023-04-16T09:10:59.877Z,9.60
2023-04-16T09:13:27.020Z,9.60
2023-04-16T09:15:55.061Z,9.60
2023-04-16T09:18:22.185Z,9.60
2023-04-16T09:20:49.686Z,9.60
2023-04-16T09:23:16.732Z,9.70
2023-04-16T09:25:43.896Z,9.70
2023-04-16T09:28:11.158Z,9.70
2023-04-16T09:30:38.017Z,9.70
2023-04-16T09:33:24.993Z,9.80
2023-04-16T09:35:53.126Z,9.80
2023-04-16T09:38:20.958Z,9.80
2023-04-16T09:40:47.989Z,9.80
2023-04-16T09:43:15.884Z,9.80
2023-04-16T09:45:52.974Z,9.80
2023-04-16T09:48:30.364Z,9.80
2023-04-16T09:51:02.942Z,10.00
2023-04-16T09:53:31.222Z,10.00
2023-04-16T09:56:03.634Z,10.10
2023-04-16T09:58:30.633Z,10.00
2023-04-16T10:01:11.968Z,10.00
2023-04-16T10:03:40.308Z,10.00
2023-04-16T10:06:19.315Z,10.00
2023-04-16T10:08:50.365Z,10.00
2023-04-16T10:11:18.083Z,10.00
2023-04-16T10:13:45.193Z,10.00
2023-04-16T10:16:12.088Z,9.90
2023-04-16T10:18:40.081Z,9.90
2023-04-16T10:21:07.343Z,9.90
2023-04-16T10:23:34.679Z,9.90
2023-04-16T10:26:02.040Z,9.90
2023-04-16T10:28:29.669Z,9.90
2023-04-16T10:30:57.968Z,9.90
2023-04-16T10:33:28.753Z,9.90
2023-04-16T10:36:12.441Z,9.90
2023-04-16T10:38:46.089Z,9.90
2023-04-16T10:41:13.420Z,10.00
2023-04-16T10:43:44.529Z,10.00
2023-04-16T10:46:39.187Z,10.00
2023-04-16T10:49:16.409Z,10.00
2023-04-16T10:51:55.865Z,10.00
2023-04-16T10:54:30.157Z,10.00
2023-04-16T10:56:58.241Z,10.00
2023-04-16T10:59:25.836Z,10.10
2023-04-16T11:01:58.601Z,10.10
2023-04-16T11:04:26.243Z,10.10
2023-04-16T11:07:05.938Z,10.20
2023-04-16T11:09:53.261Z,10.20
2023-04-16T11:12:22.556Z,10.30
2023-04-16T11:14:50.780Z,10.30
2023-04-16T11:17:18.115Z,10.30
2023-04-16T11:19:48.065Z,10.40
2023-04-16T11:22:18.386Z,10.50
2023-04-16T11:24:45.916Z,10.50
2023-04-16T11:27:13.575Z,10.50
2023-04-16T11:29:40.548Z,10.60
2023-04-16T11:32:07.675Z,10.60
2023-04-16T11:34:34.669Z,10.60
2023-04-16T11:37:01.584Z,10.60
2023-04-16T11:39:28.477Z,10.60
2023-04-16T11:41:56.175Z,10.60
2023-04-16T11:44:24.607Z,10.60
2023-04-16T11:46:51.814Z,10.60
2023-04-16T11:49:27.451Z,10.60
2023-04-16T11:51:55.376Z,10.60
2023-04-16T11:54:23.225Z,10.60
2023-04-16T11:56:51.289Z,10.70
2023-04-16T11:59:19.316Z,10.70
2023-04-16T12:01:50.289Z,10.70
2023-04-16T12:04:19.363Z,10.70
2023-04-16T12:07:04.962Z,10.70
2023-04-16T12:09:31.920Z,10.80
2023-04-16T12:11:58.830Z,10.80
2023-04-16T12:14:25.713Z,10.70
2023-04-16T12:16:53.045Z,10.70
2023-04-16T12:19:20.355Z,10.70
2023-04-16T12:21:48.102Z,10.70
2023-04-16T12:24:23.150Z,10.70
2023-04-16T12:26:57.647Z,10.60
2023-04-16T12:29:25.605Z,10.60
2023-04-16T12:31:53.040Z,10.60
2023-04-16T12:34:21.118Z,10.60
2023-04-16T12:36:48.621Z,10.60
2023-04-16T12:39:16.464Z,10.60
2023-04-16T12:41:44.061Z,10.60
2023-04-16T12:44:12.294Z,10.50
2023-04-16T12:46:39.938Z,10.50
2023-04-16T12:49:07.412Z,10.60
2023-04-16T12:51:35.156Z,10.60
2023-04-16T12:54:02.690Z,10.60
2023-04-16T12:56:30.514Z,10.60
2023-04-16T12:58:57.696Z,10.70
2023-04-16T13:01:24.977Z,10.70
2023-04-16T13:03:52.026Z,10.80
2023-04-16T13:06:19.243Z,10.80
2023-04-16T13:08:46.297Z,10.90
2023-04-16T13:11:13.289Z,10.90
2023-04-16T13:13:40.224Z,11.00
2023-04-16T13:16:08.736Z,11.00
2023-04-16T13:18:40.325Z,11.00
2023-04-16T13:21:09.538Z,11.10
2023-04-16T13:23:37.823Z,11.10
2023-04-16T13:26:07.118Z,11.10
2023-04-16T13:28:34.146Z,11.20
2023-04-16T13:31:03.387Z,11.20
2023-04-16T13:33:32.017Z,11.30
2023-04-16T13:35:58.965Z,11.40
2023-04-16T13:38:26.333Z,11.60
2023-04-16T13:40:53.421Z,11.90
2023-04-16T13:43:22.454Z,12.10
2023-04-16T13:45:49.444Z,12.40
2023-04-16T13:48:18.068Z,12.70
2023-04-16T13:50:45.040Z,12.90
2023-04-16T13:53:12.102Z,13.20
2023-04-16T13:55:39.265Z,13.50
2023-04-16T13:58:07.386Z,13.70
2023-04-16T14:00:34.399Z,13.80
2023-04-16T14:03:02.716Z,13.70
2023-04-16T14:05:29.717Z,13.60
2023-04-16T14:07:56.853Z,13.40
2023-04-16T14:10:25.113Z,13.20
2023-04-16T14:12:52.148Z,13.10
2023-04-16T14:15:19.093Z,12.90
2023-04-16T14:17:46.134Z,12.80
2023-04-16T14:20:13.967Z,12.80
2023-04-16T14:22:42.622Z,12.70
2023-04-16T14:25:09.568Z,12.70
2023-04-16T14:27:36.703Z,12.70
2023-04-16T14:30:04.159Z,12.70
2023-04-16T14:32:31.443Z,12.80
2023-04-16T14:34:58.361Z,12.90
2023-04-16T14:37:26.468Z,13.00
2023-04-16T14:39:54.225Z,13.10
2023-04-16T14:42:22.714Z,13.30
2023-04-16T14:44:49.781Z,13.40
2023-04-16T14:47:16.833Z,13.50
2023-04-16T14:49:43.906Z,13.60
2023-04-16T14:52:10.800Z,13.60
2023-04-16T14:54:37.772Z,13.50
2023-04-16T14:57:04.822Z,13.60
2023-04-16T14:59:32.514Z,13.60
2023-04-16T15:01:59.586Z,13.50
2023-04-16T15:04:26.734Z,13.30
2023-04-16T15:06:55.569Z,13.20
2023-04-16T15:09:22.866Z,13.10
2023-04-16T15:11:49.754Z,12.90
2023-04-16T15:14:17.005Z,12.80
2023-04-16T15:16:44.287Z,12.70
2023-04-16T15:19:11.503Z,12.60
2023-04-16T15:21:38.697Z,12.50
2023-04-16T15:24:06.015Z,12.50
2023-04-16T15:26:33.005Z,12.40
2023-04-16T15:29:00.271Z,12.30
2023-04-16T15:31:27.328Z,12.20
2023-04-16T15:33:54.952Z,12.20
2023-04-16T15:36:21.984Z,12.10
2023-04-16T15:38:49.106Z,12.10
2023-04-16T15:41:16.050Z,12.00
2023-04-16T15:43:49.027Z,12.00
2023-04-16T15:46:17.726Z,11.90
2023-04-16T15:48:44.783Z,11.90
2023-04-16T15:51:11.703Z,11.90
2023-04-16T15:53:38.781Z,11.80
2023-04-16T15:56:05.845Z,11.80
2023-04-16T15:58:32.759Z,11.80
2023-04-16T16:00:59.650Z,11.80
2023-04-16T16:03:27.544Z,11.80
2023-04-16T16:05:54.506Z,11.70
2023-04-16T16:08:21.657Z,11.70
2023-04-16T16:10:48.978Z,11.70
2023-04-16T16:13:18.357Z,11.70
2023-04-16T16:15:45.608Z,11.70
2023-04-16T16:18:12.544Z,11.70
2023-04-16T16:20:40.725Z,11.70
2023-04-16T16:23:07.880Z,11.60
2023-04-16T16:25:34.826Z,11.60
2023-04-16T16:28:04.250Z,11.50
2023-04-16T16:30:32.670Z,11.50
2023-04-16T16:32:59.574Z,11.50
2023-04-16T16:35:26.511Z,11.40
2023-04-16T16:37:55.928Z,11.30
2023-04-16T16:40:23.355Z,11.30
2023-04-16T16:42:50.439Z,11.20
2023-04-16T16:45:17.674Z,11.20
2023-04-16T16:47:46.764Z,11.10
2023-04-16T16:50:13.850Z,11.10
2023-04-16T16:52:41.775Z,11.10
2023-04-16T16:55:17.128Z,11.10
2023-04-16T16:57:47.980Z,11.00
2023-04-16T17:00:16.552Z,11.00
2023-04-16T17:02:43.876Z,11.00
2023-04-16T17:05:11.247Z,10.90
2023-04-16T17:07:38.541Z,10.90
2023-04-16T17:10:06.817Z,10.90
2023-04-16T17:12:34.158Z,10.90
2023-04-16T17:15:01.263Z,10.80
2023-04-16T17:17:29.432Z,10.80
2023-04-16T17:19:57.396Z,10.80
2023-04-16T17:22:24.547Z,10.80
2023-04-16T17:24:51.514Z,10.70
2023-04-16T17:27:18.616Z,10.70
2023-04-16T17:29:45.559Z,10.70
2023-04-16T17:32:12.546Z,10.70
2023-04-16T17:34:39.575Z,10.70
2023-04-16T17:37:06.676Z,10.70
2023-04-16T17:39:33.706Z,10.60
2023-04-16T17:42:03.153Z,10.60
2023-04-16T17:44:30.399Z,10.60
2023-04-16T17:46:57.429Z,10.60
2023-04-16T17:49:24.355Z,10.60
2023-04-16T17:51:51.337Z,10.50
2023-04-16T17:54:18.361Z,10.50
2023-04-16T17:56:46.442Z,10.50
2023-04-16T17:59:13.483Z,10.50
2023-04-16T18:01:41.105Z,10.50
2023-04-16T18:04:08.495Z,10.50
2023-04-16T18:06:35.773Z,10.50
2023-04-16T18:09:05.167Z,10.50
2023-04-16T18:11:32.299Z,10.50
2023-04-16T18:13:59.214Z,10.50
2023-04-16T18:16:26.563Z,10.50
2023-04-16T18:18:53.581Z,10.50
2023-04-16T18:21:20.561Z,10.50
2023-04-16T18:23:47.491Z,10.50
2023-04-16T18:26:18.331Z,10.50
2023-04-16T18:28:47.950Z,10.50
2023-04-16T18:31:15.025Z,10.50
2023-04-16T18:33:55.415Z,10.50
2023-04-16T18:36:24.161Z,10.50
2023-04-16T18:39:01.036Z,10.50
2023-04-16T18:41:29.935Z,10.40
2023-04-16T18:43:57.063Z,10.40
2023-04-16T18:46:24.453Z,10.40
2023-04-16T18:48:51.575Z,10.40
2023-04-16T18:51:18.563Z,10.40
2023-04-16T18:53:45.919Z,10.40
2023-04-16T18:56:13.245Z,10.40
2023-04-16T18:58:40.192Z,10.40
2023-04-16T19:01:11.258Z,10.40
2023-04-16T19:03:41.441Z,10.40
2023-04-16T19:06:08.523Z,10.30
2023-04-16T19:08:35.439Z,10.30
2023-04-16T19:11:02.358Z,10.30
2023-04-16T19:13:30.740Z,10.30
2023-04-16T19:15:59.480Z,10.30
2023-04-16T19:18:26.984Z,10.30
2023-04-16T19:21:00.837Z,10.30
2023-04-16T19:23:28.394Z,10.30
2023-04-16T19:25:58.358Z,10.30
2023-04-16T19:28:25.522Z,10.30
2023-04-16T19:30:56.252Z,10.20
2023-04-16T19:33:23.277Z,10.20
2023-04-16T19:35:50.324Z,10.20
2023-04-16T19:38:17.231Z,10.20
2023-04-16T19:40:45.673Z,10.20
2023-04-16T19:43:12.910Z,10.20
2023-04-16T19:45:43.713Z,10.20
2023-04-16T19:48:11.544Z,10.20
2023-04-16T19:50:42.314Z,10.20
2023-04-16T19:53:09.777Z,10.20
2023-04-16T19:55:37.101Z,10.20
2023-04-16T19:58:07.077Z,10.10
2023-04-16T20:00:34.763Z,10.10
2023-04-16T20:03:01.806Z,10.10
2023-04-16T20:05:31.888Z,10.10
2023-04-16T20:07:58.867Z,10.00
2023-04-16T20:10:26.643Z,10.00
2023-04-16T20:12:53.749Z,10.00
2023-04-16T20:15:20.829Z,10.00
2023-04-16T20:17:47.832Z,10.00
2023-04-16T20:20:16.001Z,10.00
2023-04-16T20:22:43.409Z,10.00
2023-04-16T20:25:10.381Z,10.00
2023-04-16T20:27:37.400Z,10.00
2023-04-16T20:30:06.274Z,10.00
2023-04-16T20:32:33.536Z,10.00
2023-04-16T20:35:02.257Z,10.00
2023-04-16T20:37:29.319Z,10.00
2023-04-16T20:39:56.522Z,10.00
2023-04-16T20:42:26.507Z,10.00
2023-04-16T20:44:56.631Z,10.00
2023-04-16T20:47:24.031Z,10.00
2023-04-16T20:49:53.058Z,10.00
2023-04-16T20:52:20.313Z,10.00
2023-04-16T20:54:47.938Z,10.00
2023-04-16T20:57:14.977Z,10.00
2023-04-16T20:59:42.090Z,10.00
2023-04-16T21:02:09.092Z,10.00
2023-04-16T21:04:36.306Z,10.00
2023-04-16T21:07:04.395Z,10.00
2023-04-16T21:09:32.069Z,10.00
2023-04-16T21:11:59.022Z,10.00
2023-04-16T21:14:26.138Z,10.00
2023-04-16T21:16:53.111Z,10.00
2023-04-16T21:19:21.126Z,10.00
2023-04-16T21:21:48.250Z,10.00
2023-04-16T21:24:15.219Z,10.00
2023-04-16T21:26:42.149Z,10.00
2023-04-16T21:29:09.100Z,10.00
2023-04-16T21:31:36.309Z,10.00
2023-04-16T21:34:03.351Z,10.00
2023-04-16T21:36:38.991Z,9.90
2023-04-16T21:39:06.876Z,9.90
2023-04-16T21:41:34.024Z,9.90
2023-04-16T21:44:01.174Z,9.90
2023-04-16T21:46:28.398Z,9.90
2023-04-16T21:48:55.447Z,9.90
2023-04-16T21:51:29.395Z,9.90
2023-04-16T21:53:56.798Z,9.90
2023-04-16T21:56:27.265Z,9.90
2023-04-16T21:58:54.856Z,9.90
2023-04-16T22:01:22.147Z,9.90
2023-04-16T22:03:52.246Z,10.00
2023-04-16T22:06:20.719Z,10.00
2023-04-16T22:08:56.380Z,10.00
2023-04-16T22:11:23.277Z,10.00
2023-04-16T22:13:56.888Z,9.90
2023-04-16T22:16:24.955Z,9.90
2023-04-16T22:18:52.008Z,9.90
2023-04-16T22:21:19.252Z,9.90
2023-04-16T22:23:46.769Z,9.90
2023-04-16T22:26:13.757Z,9.90
2023-04-16T22:28:40.890Z,9.90
2023-04-16T22:31:07.918Z,9.90
2023-04-16T22:33:34.839Z,9.90
2023-04-16T22:36:01.807Z,9.90
2023-04-16T22:38:28.752Z,9.90
2023-04-16T22:40:56.097Z,9.90
2023-04-16T22:43:23.315Z,9.90
2023-04-16T22:45:50.333Z,9.90
2023-04-16T22:48:17.402Z,9.80
2023-04-16T22:50:48.910Z,9.80
2023-04-16T22:53:15.959Z,9.80
2023-04-16T22:55:43.002Z,9.80
2023-04-16T22:58:09.997Z,9.80
2023-04-16T23:00:36.997Z,9.80
2023-04-16T23:03:04.103Z,9.80
2023-04-16T23:05:31.542Z,9.80
2023-04-16T23:07:58.427Z,9.80
2023-04-16T23:10:25.247Z,9.80
2023-04-16T23:12:52.147Z,9.80
2023-04-16T23:15:19.140Z,9.80
2023-04-16T23:17:46.957Z,9.80
2023-04-16T23:20:14.414Z,9.80
2023-04-16T23:22:41.583Z,9.80
2023-04-16T23:25:11.547Z,9.80
2023-04-16T23:27:38.698Z,9.80
2023-04-16T23:30:06.146Z,9.70
2023-04-16T23:32:34.356Z,9.70
2023-04-16T23:35:01.415Z,9.70
2023-04-16T23:37:28.292Z,9.70
2023-04-16T23:39:55.187Z,9.70
2023-04-16T23:42:22.144Z,9.70
2023-04-16T23:44:49.185Z,9.70
2023-04-16T23:47:16.208Z,9.70
2023-04-16T23:49:43.271Z,9.70
2023-04-16T23:52:10.347Z,9.70
2023-04-16T23:54:37.259Z,9.70
2023-04-16T23:57:04.195Z,9.80
2023-04-16T23:59:31.122Z,9.80
